sensor_id;sensor_type;location;lat;lon;timestamp;P1;durP1;ratioP1;P2;durP2;ratioP2
51228;SDS011;37304;52.216;6.874;2023-02-28T00:02:45;6.20;;;3.30;;
51228;SDS011;37304;52.216;6.874;2023-02-28T00:07:46;3.53;;;2.95;;
51228;SDS011;37304;52.216;6.874;2023-02-28T00:12:47;4.93;;;2.30;;
51228;SDS011;37304;52.216;6.874;2023-02-28T00:17:51;5.88;;;3.03;;
51228;SDS011;37304;52.216;6.874;2023-02-28T00:22:52;3.92;;;2.17;;
51228;SDS011;37304;52.216;6.874;2023-02-28T00:27:53;3.80;;;2.22;;
51228;SDS011;37304;52.216;6.874;2023-02-28T00:32:54;5.23;;;2.20;;
51228;SDS011;37304;52.216;6.874;2023-02-28T00:37:54;6.03;;;2.07;;
51228;SDS011;37304;52.216;6.874;2023-02-28T00:42:54;7.50;;;2.57;;
51228;SDS011;37304;52.216;6.874;2023-02-28T00:47:55;4.65;;;2.03;;
51228;SDS011;37304;52.216;6.874;2023-02-28T00:52:55;4.17;;;2.77;;
51228;SDS011;37304;52.216;6.874;2023-02-28T00:57:56;6.50;;;2.30;;
51228;SDS011;37304;52.216;6.874;2023-02-28T01:02:56;7.13;;;2.73;;
51228;SDS011;37304;52.216;6.874;2023-02-28T01:07:59;3.03;;;2.33;;
51228;SDS011;37304;52.216;6.874;2023-02-28T01:12:59;3.50;;;2.90;;
51228;SDS011;37304;52.216;6.874;2023-02-28T01:18:00;2.97;;;2.07;;
51228;SDS011;37304;52.216;6.874;2023-02-28T01:23:00;3.77;;;2.30;;
51228;SDS011;37304;52.216;6.874;2023-02-28T01:28:01;3.83;;;2.42;;
51228;SDS011;37304;52.216;6.874;2023-02-28T01:33:01;4.93;;;2.83;;
51228;SDS011;37304;52.216;6.874;2023-02-28T01:38:02;3.63;;;2.23;;
51228;SDS011;37304;52.216;6.874;2023-02-28T01:43:02;5.20;;;2.17;;
51228;SDS011;37304;52.216;6.874;2023-02-28T01:48:05;8.05;;;3.30;;
51228;SDS011;37304;52.216;6.874;2023-02-28T01:53:10;3.88;;;2.33;;
51228;SDS011;37304;52.216;6.874;2023-02-28T01:58:14;2.50;;;2.15;;
51228;SDS011;37304;52.216;6.874;2023-02-28T02:03:16;3.40;;;2.53;;
51228;SDS011;37304;52.216;6.874;2023-02-28T02:08:22;5.65;;;2.83;;
51228;SDS011;37304;52.216;6.874;2023-02-28T02:13:49;4.78;;;2.53;;
51228;SDS011;37304;52.216;6.874;2023-02-28T02:24:52;3.30;;;2.05;;
51228;SDS011;37304;52.216;6.874;2023-02-28T02:40:48;3.25;;;2.15;;
51228;SDS011;37304;52.216;6.874;2023-02-28T02:45:56;8.77;;;2.95;;
51228;SDS011;37304;52.216;6.874;2023-02-28T02:51:03;4.22;;;2.58;;
51228;SDS011;37304;52.216;6.874;2023-02-28T02:56:12;4.70;;;1.90;;
51228;SDS011;37304;52.216;6.874;2023-02-28T03:01:20;4.57;;;2.95;;
51228;SDS011;37304;52.216;6.874;2023-02-28T03:06:27;4.05;;;2.50;;
51228;SDS011;37304;52.216;6.874;2023-02-28T03:11:28;5.88;;;2.80;;
51228;SDS011;37304;52.216;6.874;2023-02-28T03:21:43;5.00;;;3.03;;
51228;SDS011;37304;52.216;6.874;2023-02-28T03:26:57;7.55;;;3.00;;
51228;SDS011;37304;52.216;6.874;2023-02-28T03:32:08;7.65;;;3.47;;
51228;SDS011;37304;52.216;6.874;2023-02-28T03:37:28;6.03;;;3.40;;
51228;SDS011;37304;52.216;6.874;2023-02-28T03:42:31;6.35;;;2.95;;
51228;SDS011;37304;52.216;6.874;2023-02-28T03:47:44;5.18;;;2.90;;
51228;SDS011;37304;52.216;6.874;2023-02-28T03:52:58;6.78;;;2.95;;
51228;SDS011;37304;52.216;6.874;2023-02-28T03:58:15;8.48;;;3.30;;
51228;SDS011;37304;52.216;6.874;2023-02-28T04:03:30;8.18;;;3.85;;
51228;SDS011;37304;52.216;6.874;2023-02-28T04:08:32;4.85;;;3.08;;
51228;SDS011;37304;52.216;6.874;2023-02-28T04:13:32;6.03;;;3.38;;
51228;SDS011;37304;52.216;6.874;2023-02-28T04:18:33;5.17;;;3.47;;
51228;SDS011;37304;52.216;6.874;2023-02-28T04:23:33;6.67;;;3.27;;
51228;SDS011;37304;52.216;6.874;2023-02-28T04:28:33;5.30;;;3.23;;
51228;SDS011;37304;52.216;6.874;2023-02-28T04:33:37;4.43;;;2.77;;
51228;SDS011;37304;52.216;6.874;2023-02-28T04:38:37;5.60;;;3.22;;
51228;SDS011;37304;52.216;6.874;2023-02-28T04:48:39;4.50;;;2.42;;
51228;SDS011;37304;52.216;6.874;2023-02-28T04:53:40;4.15;;;2.65;;
51228;SDS011;37304;52.216;6.874;2023-02-28T04:58:42;5.57;;;3.40;;
51228;SDS011;37304;52.216;6.874;2023-02-28T05:03:43;6.30;;;3.15;;
51228;SDS011;37304;52.216;6.874;2023-02-28T05:08:44;5.15;;;3.28;;
51228;SDS011;37304;52.216;6.874;2023-02-28T05:13:44;4.70;;;3.40;;
51228;SDS011;37304;52.216;6.874;2023-02-28T05:18:45;5.00;;;3.30;;
51228;SDS011;37304;52.216;6.874;2023-02-28T05:23:46;4.25;;;2.75;;
51228;SDS011;37304;52.216;6.874;2023-02-28T05:28:46;6.77;;;3.20;;
51228;SDS011;37304;52.216;6.874;2023-02-28T05:33:47;4.47;;;2.60;;
51228;SDS011;37304;52.216;6.874;2023-02-28T05:38:47;4.50;;;2.80;;
51228;SDS011;37304;52.216;6.874;2023-02-28T05:53:49;9.20;;;2.75;;
51228;SDS011;37304;52.216;6.874;2023-02-28T05:58:50;4.23;;;2.57;;
51228;SDS011;37304;52.216;6.874;2023-02-28T06:03:50;4.43;;;2.27;;
51228;SDS011;37304;52.216;6.874;2023-02-28T06:08:50;2.87;;;2.20;;
51228;SDS011;37304;52.216;6.874;2023-02-28T06:13:52;2.83;;;1.67;;
51228;SDS011;37304;52.216;6.874;2023-02-28T06:18:53;4.47;;;2.83;;
51228;SDS011;37304;52.216;6.874;2023-02-28T06:23:56;6.57;;;2.65;;
51228;SDS011;37304;52.216;6.874;2023-02-28T06:28:57;3.75;;;2.55;;
51228;SDS011;37304;52.216;6.874;2023-02-28T06:33:57;5.20;;;2.33;;
51228;SDS011;37304;52.216;6.874;2023-02-28T06:38:58;3.87;;;2.40;;
51228;SDS011;37304;52.216;6.874;2023-02-28T06:43:58;2.67;;;2.27;;
51228;SDS011;37304;52.216;6.874;2023-02-28T06:48:58;7.57;;;2.87;;
51228;SDS011;37304;52.216;6.874;2023-02-28T06:53:59;2.57;;;1.47;;
51228;SDS011;37304;52.216;6.874;2023-02-28T06:58:59;4.77;;;2.60;;
51228;SDS011;37304;52.216;6.874;2023-02-28T07:04:00;6.97;;;2.53;;
51228;SDS011;37304;52.216;6.874;2023-02-28T07:09:00;2.60;;;2.15;;
51228;SDS011;37304;52.216;6.874;2023-02-28T07:14:01;3.33;;;1.93;;
51228;SDS011;37304;52.216;6.874;2023-02-28T07:19:01;3.53;;;1.50;;
51228;SDS011;37304;52.216;6.874;2023-02-28T07:24:01;2.40;;;1.80;;
51228;SDS011;37304;52.216;6.874;2023-02-28T07:29:02;2.73;;;1.73;;
51228;SDS011;37304;52.216;6.874;2023-02-28T07:34:02;1.63;;;1.27;;
51228;SDS011;37304;52.216;6.874;2023-02-28T07:39:03;2.97;;;1.75;;
51228;SDS011;37304;52.216;6.874;2023-02-28T07:44:04;3.33;;;1.45;;
51228;SDS011;37304;52.216;6.874;2023-02-28T07:49:06;5.20;;;1.70;;
51228;SDS011;37304;52.216;6.874;2023-02-28T07:54:06;2.33;;;1.13;;
51228;SDS011;37304;52.216;6.874;2023-02-28T07:59:07;3.50;;;1.70;;
51228;SDS011;37304;52.216;6.874;2023-02-28T08:04:08;3.87;;;1.90;;
51228;SDS011;37304;52.216;6.874;2023-02-28T08:09:08;4.90;;;2.30;;
51228;SDS011;37304;52.216;6.874;2023-02-28T08:14:08;3.33;;;2.03;;
51228;SDS011;37304;52.216;6.874;2023-02-28T08:19:09;3.80;;;1.80;;
51228;SDS011;37304;52.216;6.874;2023-02-28T08:24:09;2.73;;;1.60;;
51228;SDS011;37304;52.216;6.874;2023-02-28T08:29:10;3.05;;;1.67;;
51228;SDS011;37304;52.216;6.874;2023-02-28T08:34:12;3.10;;;1.30;;
51228;SDS011;37304;52.216;6.874;2023-02-28T08:39:14;2.45;;;1.15;;
51228;SDS011;37304;52.216;6.874;2023-02-28T08:44:15;2.00;;;1.47;;
51228;SDS011;37304;52.216;6.874;2023-02-28T08:49:15;5.43;;;1.60;;
51228;SDS011;37304;52.216;6.874;2023-02-28T08:54:16;2.05;;;1.25;;
51228;SDS011;37304;52.216;6.874;2023-02-28T08:59:19;3.42;;;1.10;;
51228;SDS011;37304;52.216;6.874;2023-02-28T09:04:19;2.77;;;1.07;;
51228;SDS011;37304;52.216;6.874;2023-02-28T09:09:19;1.73;;;1.10;;
51228;SDS011;37304;52.216;6.874;2023-02-28T09:14:20;2.40;;;1.10;;
51228;SDS011;37304;52.216;6.874;2023-02-28T09:24:20;1.75;;;1.20;;
51228;SDS011;37304;52.216;6.874;2023-02-28T09:29:21;1.23;;;1.13;;
51228;SDS011;37304;52.216;6.874;2023-02-28T09:34:21;1.57;;;0.80;;
51228;SDS011;37304;52.216;6.874;2023-02-28T09:39:22;2.20;;;0.75;;
51228;SDS011;37304;52.216;6.874;2023-02-28T09:49:45;1.35;;;0.88;;
51228;SDS011;37304;52.216;6.874;2023-02-28T09:54:46;1.48;;;0.70;;
51228;SDS011;37304;52.216;6.874;2023-02-28T10:00:33;0.97;;;0.63;;
51228;SDS011;37304;52.216;6.874;2023-02-28T10:05:15;0.75;;;0.60;;
51228;SDS011;37304;52.216;6.874;2023-02-28T10:10:36;1.42;;;0.80;;
51228;SDS011;37304;52.216;6.874;2023-02-28T10:15:40;0.63;;;0.60;;
51228;SDS011;37304;52.216;6.874;2023-02-28T10:20:42;1.80;;;1.00;;
51228;SDS011;37304;52.216;6.874;2023-02-28T10:25:44;0.85;;;0.63;;
51228;SDS011;37304;52.216;6.874;2023-02-28T10:30:53;1.15;;;0.85;;
51228;SDS011;37304;52.216;6.874;2023-02-28T10:35:54;2.25;;;1.00;;
51228;SDS011;37304;52.216;6.874;2023-02-28T10:41:05;0.80;;;0.70;;
51228;SDS011;37304;52.216;6.874;2023-02-28T10:46:18;1.83;;;0.75;;
51228;SDS011;37304;52.216;6.874;2023-02-28T10:51:25;1.77;;;1.17;;
51228;SDS011;37304;52.216;6.874;2023-02-28T10:56:35;2.40;;;1.00;;
51228;SDS011;37304;52.216;6.874;2023-02-28T11:01:37;0.73;;;0.60;;
51228;SDS011;37304;52.216;6.874;2023-02-28T11:06:41;1.00;;;0.90;;
51228;SDS011;37304;52.216;6.874;2023-02-28T11:11:43;1.73;;;1.00;;
51228;SDS011;37304;52.216;6.874;2023-02-28T11:16:45;2.03;;;1.10;;
51228;SDS011;37304;52.216;6.874;2023-02-28T11:21:48;1.97;;;1.10;;
51228;SDS011;37304;52.216;6.874;2023-02-28T11:26:54;1.00;;;0.88;;
51228;SDS011;37304;52.216;6.874;2023-02-28T11:37:02;1.73;;;1.00;;
51228;SDS011;37304;52.216;6.874;2023-02-28T11:42:09;1.23;;;0.80;;
51228;SDS011;37304;52.216;6.874;2023-02-28T11:47:26;1.42;;;0.90;;
51228;SDS011;37304;52.216;6.874;2023-02-28T11:58:03;2.08;;;1.10;;
51228;SDS011;37304;52.216;6.874;2023-02-28T12:03:55;2.22;;;0.90;;
51228;SDS011;37304;52.216;6.874;2023-02-28T12:30:33;2.15;;;1.00;;
51228;SDS011;37304;52.216;6.874;2023-02-28T12:35:38;2.30;;;0.93;;
51228;SDS011;37304;52.216;6.874;2023-02-28T12:40:49;2.05;;;0.98;;
51228;SDS011;37304;52.216;6.874;2023-02-28T12:45:56;5.20;;;1.30;;
51228;SDS011;37304;52.216;6.874;2023-02-28T12:51:00;1.00;;;0.57;;
51228;SDS011;37304;52.216;6.874;2023-02-28T13:12:24;1.10;;;0.98;;
51228;SDS011;37304;52.216;6.874;2023-02-28T13:17:26;2.67;;;1.23;;
51228;SDS011;37304;52.216;6.874;2023-02-28T13:22:42;1.77;;;1.20;;
51228;SDS011;37304;52.216;6.874;2023-02-28T13:27:44;1.73;;;1.33;;
51228;SDS011;37304;52.216;6.874;2023-02-28T13:32:46;1.88;;;1.33;;
51228;SDS011;37304;52.216;6.874;2023-02-28T13:37:46;1.90;;;1.50;;
51228;SDS011;37304;52.216;6.874;2023-02-28T13:42:49;1.60;;;1.50;;
51228;SDS011;37304;52.216;6.874;2023-02-28T13:47:54;2.97;;;1.27;;
51228;SDS011;37304;52.216;6.874;2023-02-28T14:09:44;1.60;;;0.98;;
51228;SDS011;37304;52.216;6.874;2023-02-28T14:19:37;1.85;;;0.70;;
51228;SDS011;37304;52.216;6.874;2023-02-28T14:34:44;2.88;;;1.13;;
51228;SDS011;37304;52.216;6.874;2023-02-28T14:39:52;5.55;;;1.30;;
51228;SDS011;37304;52.216;6.874;2023-02-28T14:44:54;1.17;;;1.10;;
51228;SDS011;37304;52.216;6.874;2023-02-28T14:49:56;2.20;;;1.23;;
51228;SDS011;37304;52.216;6.874;2023-02-28T15:00:04;1.27;;;0.97;;
51228;SDS011;37304;52.216;6.874;2023-02-28T15:05:18;1.00;;;0.90;;
51228;SDS011;37304;52.216;6.874;2023-02-28T15:10:43;1.23;;;1.13;;
51228;SDS011;37304;52.216;6.874;2023-02-28T15:15:51;1.30;;;1.05;;
51228;SDS011;37304;52.216;6.874;2023-02-28T15:20:52;2.28;;;1.00;;
51228;SDS011;37304;52.216;6.874;2023-02-28T15:25:53;2.75;;;1.17;;
51228;SDS011;37304;52.216;6.874;2023-02-28T15:30:58;1.27;;;0.73;;
51228;SDS011;37304;52.216;6.874;2023-02-28T15:36:14;1.52;;;1.25;;
51228;SDS011;37304;52.216;6.874;2023-02-28T15:41:25;1.25;;;1.10;;
51228;SDS011;37304;52.216;6.874;2023-02-28T15:46:27;0.90;;;0.77;;
51228;SDS011;37304;52.216;6.874;2023-02-28T15:51:36;1.02;;;0.60;;
51228;SDS011;37304;52.216;6.874;2023-02-28T15:56:44;1.45;;;0.85;;
51228;SDS011;37304;52.216;6.874;2023-02-28T16:01:46;1.05;;;0.95;;
51228;SDS011;37304;52.216;6.874;2023-02-28T16:12:00;1.27;;;1.17;;
51228;SDS011;37304;52.216;6.874;2023-02-28T16:17:03;2.47;;;1.20;;
51228;SDS011;37304;52.216;6.874;2023-02-28T16:22:05;1.75;;;1.17;;
51228;SDS011;37304;52.216;6.874;2023-02-28T16:27:05;2.67;;;1.20;;
51228;SDS011;37304;52.216;6.874;2023-02-28T16:32:06;3.17;;;1.70;;
51228;SDS011;37304;52.216;6.874;2023-02-28T16:37:13;1.20;;;1.10;;
51228;SDS011;37304;52.216;6.874;2023-02-28T16:42:22;1.33;;;1.00;;
51228;SDS011;37304;52.216;6.874;2023-02-28T16:47:25;2.97;;;1.60;;
51228;SDS011;37304;52.216;6.874;2023-02-28T16:52:26;1.60;;;1.00;;
51228;SDS011;37304;52.216;6.874;2023-02-28T16:57:26;2.20;;;1.33;;
51228;SDS011;37304;52.216;6.874;2023-02-28T17:02:27;3.20;;;1.40;;
51228;SDS011;37304;52.216;6.874;2023-02-28T17:07:27;3.53;;;1.70;;
51228;SDS011;37304;52.216;6.874;2023-02-28T17:12:28;1.27;;;1.00;;
51228;SDS011;37304;52.216;6.874;2023-02-28T17:17:28;2.65;;;1.70;;
51228;SDS011;37304;52.216;6.874;2023-02-28T17:22:29;4.32;;;1.63;;
51228;SDS011;37304;52.216;6.874;2023-02-28T17:27:30;2.90;;;2.00;;
51228;SDS011;37304;52.216;6.874;2023-02-28T17:32:30;2.97;;;1.37;;
51228;SDS011;37304;52.216;6.874;2023-02-28T17:37:30;2.73;;;1.47;;
51228;SDS011;37304;52.216;6.874;2023-02-28T17:42:31;2.07;;;1.87;;
51228;SDS011;37304;52.216;6.874;2023-02-28T17:47:31;3.50;;;2.00;;
51228;SDS011;37304;52.216;6.874;2023-02-28T17:52:31;5.13;;;2.10;;
51228;SDS011;37304;52.216;6.874;2023-02-28T17:57:36;2.90;;;2.10;;
51228;SDS011;37304;52.216;6.874;2023-02-28T18:02:36;2.53;;;1.90;;
51228;SDS011;37304;52.216;6.874;2023-02-28T18:07:37;3.80;;;2.10;;
51228;SDS011;37304;52.216;6.874;2023-02-28T18:12:38;6.22;;;2.38;;
51228;SDS011;37304;52.216;6.874;2023-02-28T18:17:38;3.00;;;1.80;;
51228;SDS011;37304;52.216;6.874;2023-02-28T18:22:39;3.73;;;1.70;;
51228;SDS011;37304;52.216;6.874;2023-02-28T18:27:41;3.90;;;1.88;;
51228;SDS011;37304;52.216;6.874;2023-02-28T18:32:52;8.98;;;2.40;;
51228;SDS011;37304;52.216;6.874;2023-02-28T18:37:53;2.17;;;1.53;;
51228;SDS011;37304;52.216;6.874;2023-02-28T18:42:53;5.73;;;2.63;;
51228;SDS011;37304;52.216;6.874;2023-02-28T18:47:53;6.60;;;3.47;;
51228;SDS011;37304;52.216;6.874;2023-02-28T18:52:54;3.42;;;2.47;;
51228;SDS011;37304;52.216;6.874;2023-02-28T18:57:56;3.90;;;2.58;;
51228;SDS011;37304;52.216;6.874;2023-02-28T19:02:57;3.22;;;2.80;;
51228;SDS011;37304;52.216;6.874;2023-02-28T19:07:58;4.90;;;2.28;;
51228;SDS011;37304;52.216;6.874;2023-02-28T19:12:59;2.90;;;1.58;;
51228;SDS011;37304;52.216;6.874;2023-02-28T19:17:59;5.03;;;2.40;;
51228;SDS011;37304;52.216;6.874;2023-02-28T19:23:00;4.07;;;1.90;;
51228;SDS011;37304;52.216;6.874;2023-02-28T19:28:01;4.88;;;2.45;;
51228;SDS011;37304;52.216;6.874;2023-02-28T19:33:01;7.97;;;2.65;;
51228;SDS011;37304;52.216;6.874;2023-02-28T19:38:02;5.50;;;2.20;;
51228;SDS011;37304;52.216;6.874;2023-02-28T19:43:02;2.53;;;2.20;;
51228;SDS011;37304;52.216;6.874;2023-02-28T19:48:03;5.80;;;2.83;;
51228;SDS011;37304;52.216;6.874;2023-02-28T19:53:04;5.18;;;3.05;;
51228;SDS011;37304;52.216;6.874;2023-02-28T19:58:05;4.03;;;1.88;;
51228;SDS011;37304;52.216;6.874;2023-02-28T20:03:05;3.93;;;2.60;;
51228;SDS011;37304;52.216;6.874;2023-02-28T20:08:06;6.53;;;2.58;;
51228;SDS011;37304;52.216;6.874;2023-02-28T20:13:07;6.65;;;2.92;;
51228;SDS011;37304;52.216;6.874;2023-02-28T20:18:07;3.80;;;3.13;;
51228;SDS011;37304;52.216;6.874;2023-02-28T20:23:08;4.40;;;3.37;;
51228;SDS011;37304;52.216;6.874;2023-02-28T20:28:08;4.50;;;2.43;;
51228;SDS011;37304;52.216;6.874;2023-02-28T20:33:08;4.17;;;3.73;;
51228;SDS011;37304;52.216;6.874;2023-02-28T20:38:09;4.77;;;2.93;;
51228;SDS011;37304;52.216;6.874;2023-02-28T20:43:10;5.75;;;3.28;;
51228;SDS011;37304;52.216;6.874;2023-02-28T20:48:10;5.93;;;3.43;;
51228;SDS011;37304;52.216;6.874;2023-02-28T20:53:11;5.80;;;3.03;;
51228;SDS011;37304;52.216;6.874;2023-02-28T20:58:11;5.40;;;3.10;;
51228;SDS011;37304;52.216;6.874;2023-02-28T21:03:11;10.63;;;4.67;;
51228;SDS011;37304;52.216;6.874;2023-02-28T21:08:12;13.90;;;5.70;;
51228;SDS011;37304;52.216;6.874;2023-02-28T21:13:12;14.47;;;4.57;;
51228;SDS011;37304;52.216;6.874;2023-02-28T21:18:13;11.15;;;4.85;;
51228;SDS011;37304;52.216;6.874;2023-02-28T21:23:14;9.00;;;5.28;;
51228;SDS011;37304;52.216;6.874;2023-02-28T21:28:14;9.80;;;4.63;;
51228;SDS011;37304;52.216;6.874;2023-02-28T21:33:15;12.77;;;5.40;;
51228;SDS011;37304;52.216;6.874;2023-02-28T21:38:16;12.38;;;5.35;;
51228;SDS011;37304;52.216;6.874;2023-02-28T21:43:17;10.38;;;6.05;;
51228;SDS011;37304;52.216;6.874;2023-02-28T21:48:17;16.17;;;7.50;;
51228;SDS011;37304;52.216;6.874;2023-02-28T21:53:17;10.95;;;5.45;;
51228;SDS011;37304;52.216;6.874;2023-02-28T21:58:18;14.07;;;6.33;;
51228;SDS011;37304;52.216;6.874;2023-02-28T22:03:18;10.63;;;4.30;;
51228;SDS011;37304;52.216;6.874;2023-02-28T22:08:18;10.50;;;5.07;;
51228;SDS011;37304;52.216;6.874;2023-02-28T22:13:19;9.13;;;5.20;;
51228;SDS011;37304;52.216;6.874;2023-02-28T22:18:19;10.90;;;7.32;;
51228;SDS011;37304;52.216;6.874;2023-02-28T22:23:20;10.03;;;5.03;;
51228;SDS011;37304;52.216;6.874;2023-02-28T22:28:21;12.93;;;4.73;;
51228;SDS011;37304;52.216;6.874;2023-02-28T22:33:22;10.65;;;4.90;;
51228;SDS011;37304;52.216;6.874;2023-02-28T22:38:23;10.02;;;5.53;;
51228;SDS011;37304;52.216;6.874;2023-02-28T22:43:26;9.63;;;4.32;;
51228;SDS011;37304;52.216;6.874;2023-02-28T22:48:27;15.00;;;6.00;;
51228;SDS011;37304;52.216;6.874;2023-02-28T22:53:29;13.83;;;6.87;;
51228;SDS011;37304;52.216;6.874;2023-02-28T22:58:30;10.95;;;5.40;;
51228;SDS011;37304;52.216;6.874;2023-02-28T23:03:31;12.70;;;5.15;;
51228;SDS011;37304;52.216;6.874;2023-02-28T23:08:32;9.98;;;5.85;;
51228;SDS011;37304;52.216;6.874;2023-02-28T23:13:33;8.13;;;4.30;;
51228;SDS011;37304;52.216;6.874;2023-02-28T23:18:33;7.47;;;4.50;;
51228;SDS011;37304;52.216;6.874;2023-02-28T23:23:34;6.03;;;3.47;;
51228;SDS011;37304;52.216;6.874;2023-02-28T23:28:34;6.68;;;4.57;;
51228;SDS011;37304;52.216;6.874;2023-02-28T23:33:35;6.93;;;3.83;;
51228;SDS011;37304;52.216;6.874;2023-02-28T23:38:36;7.22;;;4.47;;
51228;SDS011;37304;52.216;6.874;2023-02-28T23:48:39;8.32;;;3.63;;
51228;SDS011;37304;52.216;6.874;2023-02-28T23:53:40;7.20;;;4.07;;
51228;SDS011;37304;52.216;6.874;2023-02-28T23:58:43;6.80;;;4.00;;
